sensor_id;sensor_type;location;lat;lon;timestamp;temperature;humidity
45060;DHT22;30799;49.060;9.312;2023-03-14T00:00:15;20.70;60.90
45060;DHT22;30799;49.060;9.312;2023-03-14T00:02:42;20.70;60.60
45060;DHT22;30799;49.060;9.312;2023-03-14T00:05:09;21.40;61.10
45060;DHT22;30799;49.060;9.312;2023-03-14T00:07:36;20.70;60.10
45060;DHT22;30799;49.060;9.312;2023-03-14T00:10:07;20.90;60.30
45060;DHT22;30799;49.060;9.312;2023-03-14T00:12:34;20.70;58.90
45060;DHT22;30799;49.060;9.312;2023-03-14T00:15:01;20.70;60.60
45060;DHT22;30799;49.060;9.312;2023-03-14T00:17:30;20.70;59.70
45060;DHT22;30799;49.060;9.312;2023-03-14T00:19:56;20.70;59.60
45060;DHT22;30799;49.060;9.312;2023-03-14T00:22:23;21.00;59.90
45060;DHT22;30799;49.060;9.312;2023-03-14T00:24:50;20.70;60.40
45060;DHT22;30799;49.060;9.312;2023-03-14T00:27:16;21.00;61.50
45060;DHT22;30799;49.060;9.312;2023-03-14T00:29:43;20.90;61.00
45060;DHT22;30799;49.060;9.312;2023-03-14T00:32:10;20.70;60.70
45060;DHT22;30799;49.060;9.312;2023-03-14T00:34:36;20.70;61.50
45060;DHT22;30799;49.060;9.312;2023-03-14T00:37:03;20.70;60.80
45060;DHT22;30799;49.060;9.312;2023-03-14T00:39:30;20.70;61.00
45060;DHT22;30799;49.060;9.312;2023-03-14T00:41:56;20.70;60.60
45060;DHT22;30799;49.060;9.312;2023-03-14T00:44:23;20.70;60.00
45060;DHT22;30799;49.060;9.312;2023-03-14T00:46:50;20.70;60.60
45060;DHT22;30799;49.060;9.312;2023-03-14T00:49:16;20.70;60.50
45060;DHT22;30799;49.060;9.312;2023-03-14T00:51:43;20.90;61.10
45060;DHT22;30799;49.060;9.312;2023-03-14T00:54:09;20.60;60.60
45060;DHT22;30799;49.060;9.312;2023-03-14T00:56:36;20.70;60.80
45060;DHT22;30799;49.060;9.312;2023-03-14T00:59:02;20.70;61.10
45060;DHT22;30799;49.060;9.312;2023-03-14T01:01:29;20.70;60.40
45060;DHT22;30799;49.060;9.312;2023-03-14T01:03:56;20.70;61.00
45060;DHT22;30799;49.060;9.312;2023-03-14T01:06:24;20.70;60.60
45060;DHT22;30799;49.060;9.312;2023-03-14T01:08:50;20.90;61.00
45060;DHT22;30799;49.060;9.312;2023-03-14T01:11:18;20.70;60.50
45060;DHT22;30799;49.060;9.312;2023-03-14T01:13:45;20.70;60.30
45060;DHT22;30799;49.060;9.312;2023-03-14T01:16:12;20.90;60.60
45060;DHT22;30799;49.060;9.312;2023-03-14T01:18:40;20.70;60.40
45060;DHT22;30799;49.060;9.312;2023-03-14T01:21:12;20.70;60.90
45060;DHT22;30799;49.060;9.312;2023-03-14T01:23:39;20.80;59.10
45060;DHT22;30799;49.060;9.312;2023-03-14T01:26:08;20.70;60.00
45060;DHT22;30799;49.060;9.312;2023-03-14T01:28:34;20.70;60.10
45060;DHT22;30799;49.060;9.312;2023-03-14T01:31:02;21.20;60.50
45060;DHT22;30799;49.060;9.312;2023-03-14T01:33:29;20.70;60.50
45060;DHT22;30799;49.060;9.312;2023-03-14T01:35:55;20.70;60.30
45060;DHT22;30799;49.060;9.312;2023-03-14T01:38:22;20.70;59.90
45060;DHT22;30799;49.060;9.312;2023-03-14T01:40:49;20.70;59.90
45060;DHT22;30799;49.060;9.312;2023-03-14T01:43:17;20.90;60.30
45060;DHT22;30799;49.060;9.312;2023-03-14T01:48:32;20.70;58.80
45060;DHT22;30799;49.060;9.312;2023-03-14T01:50:59;20.70;60.40
45060;DHT22;30799;49.060;9.312;2023-03-14T01:53:26;20.70;60.30
45060;DHT22;30799;49.060;9.312;2023-03-14T01:55:54;20.90;60.20
45060;DHT22;30799;49.060;9.312;2023-03-14T01:58:22;20.80;60.30
45060;DHT22;30799;49.060;9.312;2023-03-14T02:00:51;20.70;59.90
45060;DHT22;30799;49.060;9.312;2023-03-14T02:03:18;20.70;59.90
45060;DHT22;30799;49.060;9.312;2023-03-14T02:05:47;20.70;59.90
45060;DHT22;30799;49.060;9.312;2023-03-14T02:08:15;21.90;60.60
45060;DHT22;30799;49.060;9.312;2023-03-14T02:10:44;20.70;59.90
45060;DHT22;30799;49.060;9.312;2023-03-14T02:13:11;20.70;59.10
45060;DHT22;30799;49.060;9.312;2023-03-14T02:15:38;21.00;59.80
45060;DHT22;30799;49.060;9.312;2023-03-14T02:18:05;20.70;59.60
45060;DHT22;30799;49.060;9.312;2023-03-14T02:20:38;20.70;60.00
45060;DHT22;30799;49.060;9.312;2023-03-14T02:23:08;20.70;58.30
45060;DHT22;30799;49.060;9.312;2023-03-14T02:25:38;20.90;59.60
45060;DHT22;30799;49.060;9.312;2023-03-14T02:28:07;20.70;60.60
45060;DHT22;30799;49.060;9.312;2023-03-14T02:30:33;20.70;60.00
45060;DHT22;30799;49.060;9.312;2023-03-14T02:33:20;20.70;59.80
45060;DHT22;30799;49.060;9.312;2023-03-14T02:35:52;20.70;58.50
45060;DHT22;30799;49.060;9.312;2023-03-14T02:38:24;21.10;60.80
45060;DHT22;30799;49.060;9.312;2023-03-14T02:40:53;20.70;58.20
45060;DHT22;30799;49.060;9.312;2023-03-14T02:43:19;20.70;59.60
45060;DHT22;30799;49.060;9.312;2023-03-14T02:45:46;20.70;59.00
45060;DHT22;30799;49.060;9.312;2023-03-14T02:48:14;20.70;59.00
45060;DHT22;30799;49.060;9.312;2023-03-14T02:50:41;20.60;59.20
45060;DHT22;30799;49.060;9.312;2023-03-14T02:53:09;20.70;59.10
45060;DHT22;30799;49.060;9.312;2023-03-14T02:55:37;20.70;58.80
45060;DHT22;30799;49.060;9.312;2023-03-14T02:58:04;20.60;59.10
45060;DHT22;30799;49.060;9.312;2023-03-14T03:00:30;20.70;59.00
45060;DHT22;30799;49.060;9.312;2023-03-14T03:02:57;20.70;58.70
45060;DHT22;30799;49.060;9.312;2023-03-14T03:05:24;20.70;59.00
45060;DHT22;30799;49.060;9.312;2023-03-14T03:07:50;20.70;58.90
45060;DHT22;30799;49.060;9.312;2023-03-14T03:10:17;20.70;58.90
45060;DHT22;30799;49.060;9.312;2023-03-14T03:12:43;20.70;58.30
45060;DHT22;30799;49.060;9.312;2023-03-14T03:15:10;20.90;59.00
45060;DHT22;30799;49.060;9.312;2023-03-14T03:17:37;20.70;58.90
45060;DHT22;30799;49.060;9.312;2023-03-14T03:20:03;20.70;59.10
45060;DHT22;30799;49.060;9.312;2023-03-14T03:22:31;20.70;58.40
45060;DHT22;30799;49.060;9.312;2023-03-14T03:24:58;20.60;59.10
45060;DHT22;30799;49.060;9.312;2023-03-14T03:27:25;20.70;59.10
45060;DHT22;30799;49.060;9.312;2023-03-14T03:29:51;20.70;59.50
45060;DHT22;30799;49.060;9.312;2023-03-14T03:32:18;20.70;59.50
45060;DHT22;30799;49.060;9.312;2023-03-14T03:34:45;20.70;59.60
45060;DHT22;30799;49.060;9.312;2023-03-14T03:37:11;20.70;59.50
45060;DHT22;30799;49.060;9.312;2023-03-14T03:39:38;20.70;59.60
45060;DHT22;30799;49.060;9.312;2023-03-14T03:42:05;20.70;59.30
45060;DHT22;30799;49.060;9.312;2023-03-14T03:44:31;20.70;59.40
45060;DHT22;30799;49.060;9.312;2023-03-14T03:46:58;20.70;59.60
45060;DHT22;30799;49.060;9.312;2023-03-14T03:49:28;20.80;59.70
45060;DHT22;30799;49.060;9.312;2023-03-14T03:51:54;20.70;59.30
45060;DHT22;30799;49.060;9.312;2023-03-14T03:54:21;20.70;59.40
45060;DHT22;30799;49.060;9.312;2023-03-14T03:56:47;20.70;59.00
45060;DHT22;30799;49.060;9.312;2023-03-14T03:59:14;20.70;59.00
45060;DHT22;30799;49.060;9.312;2023-03-14T04:01:40;20.70;59.10
45060;DHT22;30799;49.060;9.312;2023-03-14T04:04:07;20.80;58.80
45060;DHT22;30799;49.060;9.312;2023-03-14T04:06:34;20.70;59.40
45060;DHT22;30799;49.060;9.312;2023-03-14T04:09:01;20.70;59.10
45060;DHT22;30799;49.060;9.312;2023-03-14T04:11:27;20.70;59.20
45060;DHT22;30799;49.060;9.312;2023-03-14T04:13:54;20.10;59.00
45060;DHT22;30799;49.060;9.312;2023-03-14T04:16:22;20.70;59.80
45060;DHT22;30799;49.060;9.312;2023-03-14T04:18:49;20.70;58.90
45060;DHT22;30799;49.060;9.312;2023-03-14T04:21:15;20.70;59.20
45060;DHT22;30799;49.060;9.312;2023-03-14T04:23:42;21.00;59.50
45060;DHT22;30799;49.060;9.312;2023-03-14T04:26:08;20.70;59.50
45060;DHT22;30799;49.060;9.312;2023-03-14T04:28:35;20.70;59.10
45060;DHT22;30799;49.060;9.312;2023-03-14T04:31:08;20.70;57.70
45060;DHT22;30799;49.060;9.312;2023-03-14T04:33:35;20.80;57.40
45060;DHT22;30799;49.060;9.312;2023-03-14T04:36:04;20.80;59.30
45060;DHT22;30799;49.060;9.312;2023-03-14T04:38:31;20.80;59.50
45060;DHT22;30799;49.060;9.312;2023-03-14T04:40:58;20.80;58.10
45060;DHT22;30799;49.060;9.312;2023-03-14T04:43:25;22.00;59.20
45060;DHT22;30799;49.060;9.312;2023-03-14T04:45:55;20.70;58.70
45060;DHT22;30799;49.060;9.312;2023-03-14T04:48:23;20.70;57.50
45060;DHT22;30799;49.060;9.312;2023-03-14T04:50:49;20.70;58.80
45060;DHT22;30799;49.060;9.312;2023-03-14T04:53:16;20.70;58.80
45060;DHT22;30799;49.060;9.312;2023-03-14T04:55:50;20.60;59.10
45060;DHT22;30799;49.060;9.312;2023-03-14T04:58:17;20.70;57.30
45060;DHT22;30799;49.060;9.312;2023-03-14T05:00:44;20.70;59.20
45060;DHT22;30799;49.060;9.312;2023-03-14T05:03:10;20.70;58.90
45060;DHT22;30799;49.060;9.312;2023-03-14T05:05:37;20.70;58.80
45060;DHT22;30799;49.060;9.312;2023-03-14T05:08:03;20.90;58.80
45060;DHT22;30799;49.060;9.312;2023-03-14T05:10:30;21.00;59.40
45060;DHT22;30799;49.060;9.312;2023-03-14T05:12:57;20.70;59.10
45060;DHT22;30799;49.060;9.312;2023-03-14T05:15:24;21.00;59.00
45060;DHT22;30799;49.060;9.312;2023-03-14T05:17:50;20.70;58.60
45060;DHT22;30799;49.060;9.312;2023-03-14T05:20:17;20.70;58.40
45060;DHT22;30799;49.060;9.312;2023-03-14T05:22:43;21.20;59.00
45060;DHT22;30799;49.060;9.312;2023-03-14T05:25:10;20.70;58.70
45060;DHT22;30799;49.060;9.312;2023-03-14T05:27:36;21.00;58.40
45060;DHT22;30799;49.060;9.312;2023-03-14T05:30:04;20.80;58.10
45060;DHT22;30799;49.060;9.312;2023-03-14T05:32:31;20.70;58.10
45060;DHT22;30799;49.060;9.312;2023-03-14T05:34:57;20.90;58.30
45060;DHT22;30799;49.060;9.312;2023-03-14T05:37:25;20.80;58.50
45060;DHT22;30799;49.060;9.312;2023-03-14T05:39:52;20.70;58.60
45060;DHT22;30799;49.060;9.312;2023-03-14T05:42:19;20.70;58.30
45060;DHT22;30799;49.060;9.312;2023-03-14T05:44:45;20.70;58.20
45060;DHT22;30799;49.060;9.312;2023-03-14T05:47:12;21.20;58.50
45060;DHT22;30799;49.060;9.312;2023-03-14T05:49:39;20.80;58.30
45060;DHT22;30799;49.060;9.312;2023-03-14T05:52:05;20.70;58.40
45060;DHT22;30799;49.060;9.312;2023-03-14T05:54:32;20.70;59.30
45060;DHT22;30799;49.060;9.312;2023-03-14T05:56:58;20.80;58.30
45060;DHT22;30799;49.060;9.312;2023-03-14T05:59:25;20.70;58.60
45060;DHT22;30799;49.060;9.312;2023-03-14T06:01:52;21.00;58.90
45060;DHT22;30799;49.060;9.312;2023-03-14T06:04:18;21.30;58.90
45060;DHT22;30799;49.060;9.312;2023-03-14T06:06:45;20.60;58.40
45060;DHT22;30799;49.060;9.312;2023-03-14T06:09:11;20.70;58.60
45060;DHT22;30799;49.060;9.312;2023-03-14T06:11:38;20.70;58.70
45060;DHT22;30799;49.060;9.312;2023-03-14T06:14:04;20.50;56.70
45060;DHT22;30799;49.060;9.312;2023-03-14T06:16:31;20.60;58.10
45060;DHT22;30799;49.060;9.312;2023-03-14T06:18:58;20.80;58.60
45060;DHT22;30799;49.060;9.312;2023-03-14T06:21:25;20.70;58.90
45060;DHT22;30799;49.060;9.312;2023-03-14T06:23:51;20.70;59.10
45060;DHT22;30799;49.060;9.312;2023-03-14T06:26:18;20.60;56.60
45060;DHT22;30799;49.060;9.312;2023-03-14T06:28:44;19.70;52.80
45060;DHT22;30799;49.060;9.312;2023-03-14T06:31:11;19.20;53.00
45060;DHT22;30799;49.060;9.312;2023-03-14T06:33:38;19.60;54.80
45060;DHT22;30799;49.060;9.312;2023-03-14T06:36:04;19.90;55.90
45060;DHT22;30799;49.060;9.312;2023-03-14T06:38:31;20.10;56.30
45060;DHT22;30799;49.060;9.312;2023-03-14T06:41:02;20.30;56.80
45060;DHT22;30799;49.060;9.312;2023-03-14T06:43:29;20.20;57.10
45060;DHT22;30799;49.060;9.312;2023-03-14T06:45:55;20.20;57.40
45060;DHT22;30799;49.060;9.312;2023-03-14T06:48:22;20.30;57.30
45060;DHT22;30799;49.060;9.312;2023-03-14T06:50:48;20.30;57.30
45060;DHT22;30799;49.060;9.312;2023-03-14T06:53:15;20.30;57.60
45060;DHT22;30799;49.060;9.312;2023-03-14T06:55:42;20.20;57.60
45060;DHT22;30799;49.060;9.312;2023-03-14T06:58:09;20.30;58.10
45060;DHT22;30799;49.060;9.312;2023-03-14T07:00:36;21.10;58.60
45060;DHT22;30799;49.060;9.312;2023-03-14T07:03:03;20.40;58.40
45060;DHT22;30799;49.060;9.312;2023-03-14T07:05:29;20.30;58.10
45060;DHT22;30799;49.060;9.312;2023-03-14T07:07:56;20.30;58.20
45060;DHT22;30799;49.060;9.312;2023-03-14T07:10:23;20.20;58.10
45060;DHT22;30799;49.060;9.312;2023-03-14T07:12:49;20.40;58.20
45060;DHT22;30799;49.060;9.312;2023-03-14T07:15:16;20.90;58.60
45060;DHT22;30799;49.060;9.312;2023-03-14T07:17:45;20.60;58.40
45060;DHT22;30799;49.060;9.312;2023-03-14T07:20:12;20.20;58.30
45060;DHT22;30799;49.060;9.312;2023-03-14T07:22:38;20.40;58.40
45060;DHT22;30799;49.060;9.312;2023-03-14T07:25:05;20.30;58.30
45060;DHT22;30799;49.060;9.312;2023-03-14T07:27:32;20.40;58.40
45060;DHT22;30799;49.060;9.312;2023-03-14T07:29:58;20.90;58.90
45060;DHT22;30799;49.060;9.312;2023-03-14T07:32:25;20.30;58.50
45060;DHT22;30799;49.060;9.312;2023-03-14T07:34:51;20.30;58.40
45060;DHT22;30799;49.060;9.312;2023-03-14T07:37:18;20.40;58.40
45060;DHT22;30799;49.060;9.312;2023-03-14T07:39:44;20.20;58.40
45060;DHT22;30799;49.060;9.312;2023-03-14T07:42:11;20.30;58.80
45060;DHT22;30799;49.060;9.312;2023-03-14T07:44:37;20.30;58.70
45060;DHT22;30799;49.060;9.312;2023-03-14T07:47:04;20.30;58.60
45060;DHT22;30799;49.060;9.312;2023-03-14T07:49:31;20.40;58.60
45060;DHT22;30799;49.060;9.312;2023-03-14T07:51:57;20.40;58.60
45060;DHT22;30799;49.060;9.312;2023-03-14T07:54:25;20.30;58.50
45060;DHT22;30799;49.060;9.312;2023-03-14T07:56:51;20.30;58.50
45060;DHT22;30799;49.060;9.312;2023-03-14T07:59:18;20.30;58.50
45060;DHT22;30799;49.060;9.312;2023-03-14T08:01:45;20.50;58.70
45060;DHT22;30799;49.060;9.312;2023-03-14T08:04:11;20.40;58.60
45060;DHT22;30799;49.060;9.312;2023-03-14T08:06:38;20.30;58.70
45060;DHT22;30799;49.060;9.312;2023-03-14T08:09:04;20.40;58.80
45060;DHT22;30799;49.060;9.312;2023-03-14T08:11:31;20.30;58.80
45060;DHT22;30799;49.060;9.312;2023-03-14T08:13:57;20.30;58.50
45060;DHT22;30799;49.060;9.312;2023-03-14T08:16:24;21.10;59.10
45060;DHT22;30799;49.060;9.312;2023-03-14T08:18:51;20.80;58.90
45060;DHT22;30799;49.060;9.312;2023-03-14T08:21:17;20.30;58.40
45060;DHT22;30799;49.060;9.312;2023-03-14T08:23:44;20.30;58.80
45060;DHT22;30799;49.060;9.312;2023-03-14T08:26:11;20.30;58.40
45060;DHT22;30799;49.060;9.312;2023-03-14T08:28:37;20.40;58.30
45060;DHT22;30799;49.060;9.312;2023-03-14T08:31:04;20.90;58.80
45060;DHT22;30799;49.060;9.312;2023-03-14T08:33:31;20.40;58.10
45060;DHT22;30799;49.060;9.312;2023-03-14T08:35:58;20.30;58.60
45060;DHT22;30799;49.060;9.312;2023-03-14T08:38:25;20.30;58.50
45060;DHT22;30799;49.060;9.312;2023-03-14T08:40:58;20.30;58.30
45060;DHT22;30799;49.060;9.312;2023-03-14T08:43:26;20.30;56.80
45060;DHT22;30799;49.060;9.312;2023-03-14T08:45:52;20.30;58.30
45060;DHT22;30799;49.060;9.312;2023-03-14T08:48:19;20.20;58.10
45060;DHT22;30799;49.060;9.312;2023-03-14T08:50:45;20.30;58.40
45060;DHT22;30799;49.060;9.312;2023-03-14T08:53:12;20.30;58.20
45060;DHT22;30799;49.060;9.312;2023-03-14T08:55:39;20.10;57.90
45060;DHT22;30799;49.060;9.312;2023-03-14T08:58:05;20.30;57.90
45060;DHT22;30799;49.060;9.312;2023-03-14T09:00:32;20.40;58.00
45060;DHT22;30799;49.060;9.312;2023-03-14T09:02:58;20.30;57.90
45060;DHT22;30799;49.060;9.312;2023-03-14T09:05:25;20.20;57.40
45060;DHT22;30799;49.060;9.312;2023-03-14T09:07:51;20.30;57.70
45060;DHT22;30799;49.060;9.312;2023-03-14T09:10:18;20.20;57.40
45060;DHT22;30799;49.060;9.312;2023-03-14T09:12:45;20.30;57.20
45060;DHT22;30799;49.060;9.312;2023-03-14T09:15:11;20.20;56.80
45060;DHT22;30799;49.060;9.312;2023-03-14T09:17:38;20.20;56.60
45060;DHT22;30799;49.060;9.312;2023-03-14T09:20:04;20.20;56.60
45060;DHT22;30799;49.060;9.312;2023-03-14T09:22:35;20.20;55.90
45060;DHT22;30799;49.060;9.312;2023-03-14T09:25:05;20.10;56.40
45060;DHT22;30799;49.060;9.312;2023-03-14T09:27:32;20.20;55.50
45060;DHT22;30799;49.060;9.312;2023-03-14T09:29:58;20.20;56.90
45060;DHT22;30799;49.060;9.312;2023-03-14T09:32:25;20.20;57.40
45060;DHT22;30799;49.060;9.312;2023-03-14T09:34:51;20.20;57.50
45060;DHT22;30799;49.060;9.312;2023-03-14T09:37:18;20.20;57.60
45060;DHT22;30799;49.060;9.312;2023-03-14T09:39:46;20.20;57.70
45060;DHT22;30799;49.060;9.312;2023-03-14T09:42:13;20.30;57.60
45060;DHT22;30799;49.060;9.312;2023-03-14T09:44:48;20.20;57.60
45060;DHT22;30799;49.060;9.312;2023-03-14T09:47:17;20.20;56.00
45060;DHT22;30799;49.060;9.312;2023-03-14T09:49:46;20.70;57.90
45060;DHT22;30799;49.060;9.312;2023-03-14T09:52:13;20.30;57.60
45060;DHT22;30799;49.060;9.312;2023-03-14T09:54:42;20.30;57.50
45060;DHT22;30799;49.060;9.312;2023-03-14T09:57:20;20.40;57.50
45060;DHT22;30799;49.060;9.312;2023-03-14T09:59:48;20.20;57.30
45060;DHT22;30799;49.060;9.312;2023-03-14T10:02:22;20.30;57.40
45060;DHT22;30799;49.060;9.312;2023-03-14T10:04:50;20.20;55.70
45060;DHT22;30799;49.060;9.312;2023-03-14T10:07:18;20.10;56.70
45060;DHT22;30799;49.060;9.312;2023-03-14T10:09:49;20.20;56.80
45060;DHT22;30799;49.060;9.312;2023-03-14T10:12:16;20.30;57.00
45060;DHT22;30799;49.060;9.312;2023-03-14T10:14:47;20.30;56.80
45060;DHT22;30799;49.060;9.312;2023-03-14T10:17:14;20.40;55.40
45060;DHT22;30799;49.060;9.312;2023-03-14T10:19:55;20.20;56.90
45060;DHT22;30799;49.060;9.312;2023-03-14T10:22:23;20.20;55.50
45060;DHT22;30799;49.060;9.312;2023-03-14T10:24:52;20.70;57.20
45060;DHT22;30799;49.060;9.312;2023-03-14T10:27:20;20.30;57.10
45060;DHT22;30799;49.060;9.312;2023-03-14T10:32:20;20.30;55.80
45060;DHT22;30799;49.060;9.312;2023-03-14T10:35:05;20.20;57.30
45060;DHT22;30799;49.060;9.312;2023-03-14T10:37:32;20.20;57.20
45060;DHT22;30799;49.060;9.312;2023-03-14T10:39:58;20.20;57.30
45060;DHT22;30799;49.060;9.312;2023-03-14T10:42:33;20.20;57.20
45060;DHT22;30799;49.060;9.312;2023-03-14T10:45:04;20.20;57.00
45060;DHT22;30799;49.060;9.312;2023-03-14T10:47:32;20.30;57.20
45060;DHT22;30799;49.060;9.312;2023-03-14T10:52:48;20.30;55.70
45060;DHT22;30799;49.060;9.312;2023-03-14T10:55:28;20.30;55.60
45060;DHT22;30799;49.060;9.312;2023-03-14T10:58:05;20.20;57.30
45060;DHT22;30799;49.060;9.312;2023-03-14T11:00:31;20.20;57.10
45060;DHT22;30799;49.060;9.312;2023-03-14T11:03:10;20.20;57.00
45060;DHT22;30799;49.060;9.312;2023-03-14T11:05:45;20.20;55.40
45060;DHT22;30799;49.060;9.312;2023-03-14T11:08:15;20.20;55.30
45060;DHT22;30799;49.060;9.312;2023-03-14T11:10:43;20.80;57.00
45060;DHT22;30799;49.060;9.312;2023-03-14T11:13:25;20.20;56.80
45060;DHT22;30799;49.060;9.312;2023-03-14T11:16:05;20.20;55.30
45060;DHT22;30799;49.060;9.312;2023-03-14T11:21:19;20.20;55.40
45060;DHT22;30799;49.060;9.312;2023-03-14T11:28:41;20.10;56.90
45060;DHT22;30799;49.060;9.312;2023-03-14T11:31:27;20.20;57.10
45060;DHT22;30799;49.060;9.312;2023-03-14T11:34:15;20.20;55.40
45060;DHT22;30799;49.060;9.312;2023-03-14T11:36:53;20.20;55.50
45060;DHT22;30799;49.060;9.312;2023-03-14T11:39:22;20.20;55.60
45060;DHT22;30799;49.060;9.312;2023-03-14T11:41:52;20.20;57.20
45060;DHT22;30799;49.060;9.312;2023-03-14T11:44:20;20.00;57.10
45060;DHT22;30799;49.060;9.312;2023-03-14T11:46:50;20.10;57.00
45060;DHT22;30799;49.060;9.312;2023-03-14T11:51:50;20.10;57.00
45060;DHT22;30799;49.060;9.312;2023-03-14T11:57:00;20.10;55.30
45060;DHT22;30799;49.060;9.312;2023-03-14T11:59:29;20.10;55.00
45060;DHT22;30799;49.060;9.312;2023-03-14T12:02:03;20.10;56.70
45060;DHT22;30799;49.060;9.312;2023-03-14T12:04:33;20.20;55.20
45060;DHT22;30799;49.060;9.312;2023-03-14T12:07:02;20.10;56.70
45060;DHT22;30799;49.060;9.312;2023-03-14T12:09:30;20.10;57.30
45060;DHT22;30799;49.060;9.312;2023-03-14T12:11:58;20.10;56.70
45060;DHT22;30799;49.060;9.312;2023-03-14T12:16:56;20.70;57.00
45060;DHT22;30799;49.060;9.312;2023-03-14T12:21:51;20.10;56.70
45060;DHT22;30799;49.060;9.312;2023-03-14T12:24:19;20.00;56.60
45060;DHT22;30799;49.060;9.312;2023-03-14T12:26:50;20.00;56.50
45060;DHT22;30799;49.060;9.312;2023-03-14T12:29:18;20.10;56.60
45060;DHT22;30799;49.060;9.312;2023-03-14T12:31:48;20.00;56.50
45060;DHT22;30799;49.060;9.312;2023-03-14T12:41:44;20.00;56.30
45060;DHT22;30799;49.060;9.312;2023-03-14T12:46:57;20.00;54.80
45060;DHT22;30799;49.060;9.312;2023-03-14T12:49:31;20.00;56.40
45060;DHT22;30799;49.060;9.312;2023-03-14T12:51:58;20.00;54.70
45060;DHT22;30799;49.060;9.312;2023-03-14T12:54:28;19.90;56.30
45060;DHT22;30799;49.060;9.312;2023-03-14T12:57:06;20.40;56.40
45060;DHT22;30799;49.060;9.312;2023-03-14T12:59:45;19.90;56.00
45060;DHT22;30799;49.060;9.312;2023-03-14T13:02:23;20.00;54.40
45060;DHT22;30799;49.060;9.312;2023-03-14T13:04:51;20.00;54.30
45060;DHT22;30799;49.060;9.312;2023-03-14T13:12:38;20.00;54.00
45060;DHT22;30799;49.060;9.312;2023-03-14T13:15:16;20.10;54.20
45060;DHT22;30799;49.060;9.312;2023-03-14T13:17:43;20.00;54.00
45060;DHT22;30799;49.060;9.312;2023-03-14T13:20:18;19.90;55.50
45060;DHT22;30799;49.060;9.312;2023-03-14T13:22:47;20.00;54.40
45060;DHT22;30799;49.060;9.312;2023-03-14T13:25:13;20.00;55.70
45060;DHT22;30799;49.060;9.312;2023-03-14T13:27:40;20.00;55.40
45060;DHT22;30799;49.060;9.312;2023-03-14T13:30:21;19.90;55.40
45060;DHT22;30799;49.060;9.312;2023-03-14T13:32:49;20.00;53.70
45060;DHT22;30799;49.060;9.312;2023-03-14T13:35:17;19.90;55.10
45060;DHT22;30799;49.060;9.312;2023-03-14T13:37:43;20.00;55.00
45060;DHT22;30799;49.060;9.312;2023-03-14T13:40:21;20.10;55.10
45060;DHT22;30799;49.060;9.312;2023-03-14T13:42:50;20.00;53.60
45060;DHT22;30799;49.060;9.312;2023-03-14T13:45:25;19.90;55.10
45060;DHT22;30799;49.060;9.312;2023-03-14T13:47:52;19.90;55.20
45060;DHT22;30799;49.060;9.312;2023-03-14T13:50:18;19.80;55.20
45060;DHT22;30799;49.060;9.312;2023-03-14T13:52:45;20.00;55.00
45060;DHT22;30799;49.060;9.312;2023-03-14T13:55:14;20.00;54.80
45060;DHT22;30799;49.060;9.312;2023-03-14T13:57:45;19.90;54.60
45060;DHT22;30799;49.060;9.312;2023-03-14T14:00:17;20.00;52.80
45060;DHT22;30799;49.060;9.312;2023-03-14T14:02:44;20.00;54.30
45060;DHT22;30799;49.060;9.312;2023-03-14T14:05:10;19.90;53.90
45060;DHT22;30799;49.060;9.312;2023-03-14T14:07:38;19.90;53.70
45060;DHT22;30799;49.060;9.312;2023-03-14T14:10:05;19.90;53.60
45060;DHT22;30799;49.060;9.312;2023-03-14T14:12:36;19.90;53.10
45060;DHT22;30799;49.060;9.312;2023-03-14T14:17:31;20.00;53.30
45060;DHT22;30799;49.060;9.312;2023-03-14T14:19:59;19.90;53.20
45060;DHT22;30799;49.060;9.312;2023-03-14T14:22:27;19.90;53.00
45060;DHT22;30799;49.060;9.312;2023-03-14T14:24:53;19.90;52.90
45060;DHT22;30799;49.060;9.312;2023-03-14T14:27:33;19.90;52.90
45060;DHT22;30799;49.060;9.312;2023-03-14T14:30:05;19.90;51.30
45060;DHT22;30799;49.060;9.312;2023-03-14T14:32:36;19.90;51.30
45060;DHT22;30799;49.060;9.312;2023-03-14T14:35:04;19.90;51.30
45060;DHT22;30799;49.060;9.312;2023-03-14T14:37:32;19.90;52.40
45060;DHT22;30799;49.060;9.312;2023-03-14T14:42:38;19.90;51.00
45060;DHT22;30799;49.060;9.312;2023-03-14T14:45:05;19.80;52.50
45060;DHT22;30799;49.060;9.312;2023-03-14T14:47:33;19.90;51.90
45060;DHT22;30799;49.060;9.312;2023-03-14T14:50:00;19.80;52.30
45060;DHT22;30799;49.060;9.312;2023-03-14T14:52:34;19.80;52.20
45060;DHT22;30799;49.060;9.312;2023-03-14T14:55:03;19.90;50.80
45060;DHT22;30799;49.060;9.312;2023-03-14T14:57:31;19.90;52.00
45060;DHT22;30799;49.060;9.312;2023-03-14T15:00:01;20.00;52.10
45060;DHT22;30799;49.060;9.312;2023-03-14T15:02:29;19.80;52.00
45060;DHT22;30799;49.060;9.312;2023-03-14T15:04:56;19.60;51.90
45060;DHT22;30799;49.060;9.312;2023-03-14T15:07:22;19.80;51.80
45060;DHT22;30799;49.060;9.312;2023-03-14T15:09:50;19.70;51.60
45060;DHT22;30799;49.060;9.312;2023-03-14T15:12:17;19.80;51.60
45060;DHT22;30799;49.060;9.312;2023-03-14T15:14:44;19.70;51.50
45060;DHT22;30799;49.060;9.312;2023-03-14T15:17:10;19.80;51.50
45060;DHT22;30799;49.060;9.312;2023-03-14T15:19:38;19.90;51.70
45060;DHT22;30799;49.060;9.312;2023-03-14T15:22:08;19.80;51.50
45060;DHT22;30799;49.060;9.312;2023-03-14T15:24:35;20.40;51.60
45060;DHT22;30799;49.060;9.312;2023-03-14T15:27:01;19.90;51.30
45060;DHT22;30799;49.060;9.312;2023-03-14T15:29:28;20.10;51.40
45060;DHT22;30799;49.060;9.312;2023-03-14T15:31:55;19.90;51.20
45060;DHT22;30799;49.060;9.312;2023-03-14T15:34:22;19.80;51.20
45060;DHT22;30799;49.060;9.312;2023-03-14T15:36:48;20.00;51.30
45060;DHT22;30799;49.060;9.312;2023-03-14T15:39:15;20.00;51.30
45060;DHT22;30799;49.060;9.312;2023-03-14T15:41:42;20.00;51.30
45060;DHT22;30799;49.060;9.312;2023-03-14T15:44:08;20.10;51.00
45060;DHT22;30799;49.060;9.312;2023-03-14T15:46:35;20.00;51.10
45060;DHT22;30799;49.060;9.312;2023-03-14T15:49:01;20.10;51.10
45060;DHT22;30799;49.060;9.312;2023-03-14T15:51:28;20.10;51.20
45060;DHT22;30799;49.060;9.312;2023-03-14T15:53:54;20.00;50.90
45060;DHT22;30799;49.060;9.312;2023-03-14T15:56:21;20.10;50.80
45060;DHT22;30799;49.060;9.312;2023-03-14T15:58:51;20.10;50.80
45060;DHT22;30799;49.060;9.312;2023-03-14T16:01:18;20.10;51.00
45060;DHT22;30799;49.060;9.312;2023-03-14T16:03:45;20.30;51.00
45060;DHT22;30799;49.060;9.312;2023-03-14T16:06:12;20.30;51.00
45060;DHT22;30799;49.060;9.312;2023-03-14T16:08:39;20.30;50.60
45060;DHT22;30799;49.060;9.312;2023-03-14T16:11:05;20.20;50.80
45060;DHT22;30799;49.060;9.312;2023-03-14T16:13:32;20.60;51.00
45060;DHT22;30799;49.060;9.312;2023-03-14T16:15:59;20.20;50.50
45060;DHT22;30799;49.060;9.312;2023-03-14T16:18:27;20.30;50.60
45060;DHT22;30799;49.060;9.312;2023-03-14T16:20:55;20.20;50.50